createdAt,value
2023-04-05T00:00:29.401Z,5.60
2023-04-05T00:03:12.148Z,5.70
2023-04-05T00:05:39.877Z,4.80
2023-04-05T00:08:12.835Z,4.50
2023-04-05T00:10:40.194Z,4.50
2023-04-05T00:13:06.884Z,5.60
2023-04-05T00:15:35.064Z,5.00
2023-04-05T00:18:03.280Z,5.60
2023-04-05T00:20:30.477Z,5.30
2023-04-05T00:22:57.456Z,4.30
2023-04-05T00:25:24.504Z,4.00
2023-04-05T00:27:53.492Z,4.80
2023-04-05T00:30:20.896Z,4.60
2023-04-05T00:32:49.535Z,3.90
2023-04-05T00:35:16.662Z,4.80
2023-04-05T00:37:43.456Z,5.00
2023-04-05T00:40:10.734Z,4.00
2023-04-05T00:42:37.372Z,4.10
2023-04-05T00:45:04.375Z,4.00
2023-04-05T00:47:32.145Z,3.60
2023-04-05T00:49:58.796Z,3.90
2023-04-05T00:52:31.546Z,3.80
2023-04-05T00:54:58.795Z,4.80
2023-04-05T00:57:25.871Z,4.00
2023-04-05T00:59:53.510Z,4.40
2023-04-05T01:02:26.192Z,4.50
2023-04-05T01:05:04.514Z,4.10
2023-04-05T01:07:38.234Z,4.00
2023-04-05T01:10:05.944Z,4.80
2023-04-05T01:12:32.985Z,3.80
2023-04-05T01:15:00.165Z,4.20
2023-04-05T01:17:29.515Z,4.20
2023-04-05T01:20:01.757Z,4.80
2023-04-05T01:23:00.425Z,4.60
2023-04-05T01:28:36.259Z,4.10
2023-04-05T01:31:33.505Z,4.60
2023-04-05T01:34:35.645Z,4.70
2023-04-05T01:37:05.704Z,4.50
2023-04-05T01:39:32.435Z,3.90
2023-04-05T01:42:00.692Z,4.60
2023-04-05T01:44:28.410Z,4.20
2023-04-05T01:46:55.777Z,4.70
2023-04-05T01:49:23.854Z,4.40
2023-04-05T01:51:50.665Z,4.10
2023-04-05T01:54:17.127Z,4.40
2023-04-05T01:56:44.073Z,4.40
2023-04-05T01:59:10.629Z,4.70
2023-04-05T02:01:39.135Z,4.10
2023-04-05T02:04:07.213Z,4.00
2023-04-05T02:06:41.053Z,4.10
2023-04-05T02:09:08.130Z,4.00
2023-04-05T02:11:34.803Z,3.80
2023-04-05T02:14:06.802Z,4.10
2023-04-05T02:16:33.617Z,3.50
2023-04-05T02:19:00.327Z,3.80
2023-04-05T02:21:31.394Z,3.30
2023-04-05T02:23:58.401Z,4.10
2023-04-05T02:26:26.175Z,3.40
2023-04-05T02:28:54.061Z,3.50
2023-04-05T02:31:21.625Z,3.70
2023-04-05T02:33:48.760Z,3.40
2023-04-05T02:36:15.348Z,3.30
2023-04-05T02:38:42.504Z,3.80
2023-04-05T02:41:11.080Z,3.80
2023-04-05T02:43:38.489Z,3.10
2023-04-05T02:46:05.465Z,3.30
2023-04-05T02:48:32.469Z,2.90
2023-04-05T02:50:59.504Z,3.90
2023-04-05T02:53:26.114Z,4.00
2023-04-05T02:55:59.217Z,4.60
2023-04-05T02:58:33.132Z,4.00
2023-04-05T03:01:06.627Z,2.80
2023-04-05T03:03:36.872Z,3.20
2023-04-05T03:06:09.438Z,3.00
2023-04-05T03:08:48.577Z,2.80
2023-04-05T03:11:18.870Z,2.90
2023-04-05T03:13:54.257Z,2.70
2023-04-05T03:16:41.132Z,2.90
2023-04-05T03:19:28.111Z,2.80
2023-04-05T03:21:58.925Z,2.50
2023-04-05T03:24:30.226Z,2.90
2023-04-05T03:27:03.657Z,3.00
2023-04-05T03:29:33.785Z,2.70
2023-04-05T03:32:11.265Z,2.80
2023-04-05T03:34:39.076Z,2.30
2023-04-05T03:37:06.527Z,1.90
2023-04-05T03:39:47.754Z,2.80
2023-04-05T03:42:15.517Z,3.20
2023-04-05T03:44:42.946Z,2.60
2023-04-05T03:47:12.642Z,2.30
2023-04-05T03:49:41.528Z,2.20
2023-04-05T03:52:09.026Z,2.00
2023-04-05T03:54:36.989Z,2.10
2023-04-05T03:57:03.943Z,2.10
2023-04-05T03:59:33.732Z,1.90
2023-04-05T04:02:01.733Z,2.20
2023-04-05T04:04:29.082Z,2.00
2023-04-05T04:06:56.567Z,2.10
2023-04-05T04:09:27.481Z,1.60
2023-04-05T04:11:56.288Z,2.30
2023-04-05T04:14:24.185Z,2.40
2023-04-05T04:16:57.067Z,1.60
2023-04-05T04:19:46.891Z,2.30
2023-04-05T04:22:45.284Z,1.90
2023-04-05T04:25:30.119Z,2.00
2023-04-05T04:31:08.582Z,2.00
2023-04-05T04:33:58.829Z,1.90
2023-04-05T04:36:47.549Z,2.10
2023-04-05T04:39:34.319Z,1.60
2023-04-05T04:42:22.377Z,1.80
2023-04-05T04:45:25.583Z,2.00
2023-04-05T04:48:13.537Z,2.10
2023-04-05T04:50:58.038Z,2.20
2023-04-05T04:53:25.304Z,2.20
2023-04-05T04:55:58.439Z,2.40
2023-04-05T04:58:27.017Z,2.00
2023-04-05T05:01:08.055Z,2.00
2023-04-05T05:03:38.991Z,3.00
2023-04-05T05:06:06.727Z,2.50
2023-04-05T05:08:34.677Z,1.60
2023-04-05T05:11:07.004Z,2.00
2023-04-05T05:13:35.654Z,1.60
2023-04-05T05:16:03.884Z,1.70
2023-04-05T05:18:33.090Z,1.80
2023-04-05T05:21:00.097Z,1.80
2023-04-05T05:23:26.912Z,2.00
2023-04-05T05:25:59.075Z,1.60
2023-04-05T05:28:26.805Z,1.70
2023-04-05T05:30:53.748Z,1.90
2023-04-05T05:33:20.803Z,2.00
2023-04-05T05:35:49.264Z,1.70
2023-04-05T05:38:16.901Z,1.50
2023-04-05T05:40:44.038Z,1.80
2023-04-05T05:43:10.758Z,1.60
2023-04-05T05:45:37.353Z,1.60
2023-04-05T05:48:04.375Z,1.60
2023-04-05T05:50:32.423Z,1.60
2023-04-05T05:53:02.099Z,1.70
2023-04-05T05:55:28.819Z,1.60
2023-04-05T05:57:56.128Z,1.60
2023-04-05T06:00:23.783Z,1.60
2023-04-05T06:02:52.210Z,1.50
2023-04-05T06:05:19.108Z,1.70
2023-04-05T06:07:46.650Z,1.50
2023-04-05T06:10:19.651Z,1.50
2023-04-05T06:12:46.742Z,1.40
2023-04-05T06:15:13.550Z,1.80
2023-04-05T06:17:42.080Z,1.40
2023-04-05T06:20:11.248Z,2.00
2023-04-05T06:22:43.852Z,1.60
2023-04-05T06:25:12.334Z,2.20
2023-04-05T06:27:39.102Z,2.60
2023-04-05T06:30:06.843Z,1.90
2023-04-05T06:32:34.022Z,2.50
2023-04-05T06:35:02.064Z,1.90
2023-04-05T06:37:32.101Z,2.00
2023-04-05T06:39:58.675Z,2.60
2023-04-05T06:42:28.286Z,2.90
2023-04-05T06:44:58.278Z,2.30
2023-04-05T06:47:25.664Z,2.30
2023-04-05T06:49:53.699Z,2.10
2023-04-05T06:52:20.364Z,2.10
2023-04-05T06:54:47.222Z,2.50
2023-04-05T06:57:13.894Z,4.30
2023-04-05T06:59:41.193Z,2.20
2023-04-05T07:02:08.109Z,2.50
2023-04-05T07:04:36.250Z,2.50
2023-04-05T07:07:03.182Z,5.10
2023-04-05T07:09:32.174Z,2.20
2023-04-05T07:12:00.757Z,2.10
2023-04-05T07:14:29.692Z,2.30
2023-04-05T07:16:57.666Z,2.70
2023-04-05T07:19:24.350Z,2.20
2023-04-05T07:21:51.162Z,2.40
2023-04-05T07:24:19.872Z,1.90
2023-04-05T07:26:46.498Z,2.60
2023-04-05T07:29:17.026Z,2.10
2023-04-05T07:31:45.719Z,2.70
2023-04-05T07:34:12.871Z,2.40
2023-04-05T07:36:39.409Z,2.30
2023-04-05T07:39:06.918Z,3.00
2023-04-05T07:41:37.480Z,3.00
2023-04-05T07:44:04.931Z,2.40
2023-04-05T07:46:31.611Z,2.20
2023-04-05T07:48:58.190Z,2.60
2023-04-05T07:51:26.781Z,2.30
2023-04-05T07:53:58.353Z,2.60
2023-04-05T07:56:33.363Z,2.10
2023-04-05T07:58:59.981Z,2.30
2023-04-05T08:01:27.310Z,2.30
2023-04-05T08:03:56.832Z,2.00
2023-04-05T08:06:29.470Z,2.20
2023-04-05T08:08:55.954Z,2.40
2023-04-05T08:11:22.471Z,2.60
2023-04-05T08:13:49.452Z,2.30
2023-04-05T08:16:15.963Z,2.90
2023-04-05T08:18:42.510Z,2.30
2023-04-05T08:21:09.064Z,2.20
2023-04-05T08:23:35.734Z,2.60
2023-04-05T08:26:02.383Z,2.80
2023-04-05T08:28:30.697Z,2.70
2023-04-05T08:30:57.291Z,2.90
2023-04-05T08:33:25.672Z,3.30
2023-04-05T08:35:52.465Z,3.50
2023-04-05T08:38:20.600Z,3.60
2023-04-05T08:40:47.363Z,3.30
2023-04-05T08:43:48.863Z,3.10
2023-04-05T08:46:16.130Z,3.30
2023-04-05T08:48:43.948Z,3.80
2023-04-05T08:51:10.623Z,3.20
2023-04-05T08:53:39.209Z,3.30
2023-04-05T08:56:06.094Z,3.50
2023-04-05T08:58:35.668Z,3.20
2023-04-05T09:01:02.209Z,3.50
2023-04-05T09:03:40.080Z,3.10
2023-04-05T09:06:08.004Z,3.50
2023-04-05T09:08:34.675Z,3.10
2023-04-05T09:11:02.841Z,3.20
2023-04-05T09:13:30.845Z,2.60
2023-04-05T09:15:57.458Z,2.80
2023-04-05T09:18:27.283Z,3.60
2023-04-05T09:21:05.126Z,2.70
2023-04-05T09:23:36.414Z,3.40
2023-04-05T09:26:25.198Z,3.10
2023-04-05T09:28:56.822Z,2.90
2023-04-05T09:31:34.372Z,2.80
2023-04-05T09:34:04.052Z,3.40
2023-04-05T09:36:33.077Z,3.40
2023-04-05T09:39:07.048Z,3.90
2023-04-05T09:41:34.554Z,2.90
2023-04-05T09:44:01.490Z,3.80
2023-04-05T09:46:33.480Z,2.80
2023-04-05T09:49:01.008Z,3.20
2023-04-05T09:51:32.675Z,3.40
2023-04-05T09:54:05.463Z,3.30
2023-04-05T09:56:36.959Z,3.30
2023-04-05T09:59:08.979Z,3.60
2023-04-05T10:01:37.649Z,4.10
2023-04-05T10:04:06.431Z,4.10
2023-04-05T10:06:40.509Z,4.00
2023-04-05T10:09:08.203Z,3.70
2023-04-05T10:11:36.205Z,3.70
2023-04-05T10:14:04.464Z,4.00
2023-04-05T10:16:33.701Z,3.90
2023-04-05T10:19:02.425Z,4.80
2023-04-05T10:21:32.161Z,4.70
2023-04-05T10:24:21.453Z,3.90
2023-04-05T10:26:53.736Z,4.60
2023-04-05T10:29:29.428Z,4.20
2023-04-05T10:32:02.292Z,4.20
2023-04-05T10:34:41.686Z,4.80
2023-04-05T10:37:08.296Z,4.10
2023-04-05T10:39:45.236Z,4.30
2023-04-05T10:42:21.635Z,4.40
2023-04-05T10:47:19.379Z,4.30
2023-04-05T10:49:49.476Z,4.60
2023-04-05T10:52:16.975Z,4.00
2023-04-05T10:54:44.242Z,4.10
2023-04-05T10:57:12.970Z,4.40
2023-04-05T10:59:44.907Z,4.70
2023-04-05T11:02:13.360Z,5.30
2023-04-05T11:04:42.188Z,4.70
2023-04-05T11:07:13.085Z,5.30
2023-04-05T11:09:50.307Z,5.30
2023-04-05T11:12:17.344Z,6.20
2023-04-05T11:14:44.438Z,5.40
2023-04-05T11:17:28.474Z,5.80
2023-04-05T11:20:06.439Z,5.30
2023-04-05T11:22:34.226Z,4.70
2023-04-05T11:25:03.500Z,5.30
2023-04-05T11:27:37.105Z,5.60
2023-04-05T11:30:11.691Z,6.10
2023-04-05T11:32:44.461Z,5.30
2023-04-05T11:35:13.668Z,5.30
2023-04-05T11:37:54.364Z,5.70
2023-04-05T11:40:27.551Z,5.70
2023-04-05T11:43:10.463Z,5.10
2023-04-05T11:45:40.385Z,6.50
2023-04-05T11:48:13.423Z,5.50
2023-04-05T11:50:42.076Z,6.10
2023-04-05T11:53:16.967Z,5.90
2023-04-05T11:55:50.568Z,5.80
2023-04-05T11:58:24.146Z,6.00
2023-04-05T12:00:59.982Z,5.30
2023-04-05T12:05:59.216Z,5.40
2023-04-05T12:08:40.253Z,5.70
2023-04-05T12:11:10.156Z,6.60
2023-04-05T12:13:38.813Z,5.50
2023-04-05T12:16:08.200Z,5.80
2023-04-05T12:18:36.911Z,6.30
2023-04-05T12:21:09.233Z,6.10
2023-04-05T12:23:37.390Z,5.90
2023-04-05T12:26:06.696Z,6.30
2023-04-05T12:28:54.277Z,5.60
2023-04-05T12:31:42.769Z,5.90
2023-04-05T12:34:11.419Z,6.30
2023-04-05T12:36:43.701Z,6.30
2023-04-05T12:39:11.801Z,7.30
2023-04-05T12:41:40.786Z,6.70
2023-04-05T12:44:17.185Z,7.40
2023-04-05T12:46:46.408Z,6.30
2023-04-05T12:49:18.498Z,6.70
2023-04-05T12:51:47.010Z,6.70
2023-04-05T12:54:20.266Z,6.50
2023-04-05T12:56:53.091Z,6.20
2023-04-05T12:59:21.891Z,7.00
2023-04-05T13:01:50.572Z,6.70
2023-04-05T13:04:18.606Z,6.80
2023-04-05T13:06:50.197Z,6.60
2023-04-05T13:09:18.152Z,6.70
2023-04-05T13:11:46.184Z,6.90
2023-04-05T13:14:14.718Z,6.50
2023-04-05T13:16:43.956Z,7.20
2023-04-05T13:19:11.831Z,6.60
2023-04-05T13:21:43.138Z,7.00
2023-04-05T13:24:13.002Z,6.10
2023-04-05T13:26:44.078Z,7.00
2023-04-05T13:29:11.979Z,7.40
2023-04-05T13:31:41.228Z,7.10
2023-04-05T13:34:11.715Z,6.70
2023-04-05T13:36:39.676Z,6.50
2023-04-05T13:39:07.731Z,6.00
2023-04-05T13:41:36.289Z,6.00
2023-04-05T13:44:06.625Z,6.50
2023-04-05T13:46:35.722Z,6.20
2023-04-05T13:49:03.694Z,7.90
2023-04-05T13:51:34.648Z,7.30
2023-04-05T13:54:02.695Z,6.10
2023-04-05T13:56:34.790Z,7.10
2023-04-05T13:59:02.916Z,6.90
2023-04-05T14:01:31.040Z,7.00
2023-04-05T14:03:59.189Z,8.20
2023-04-05T14:06:27.590Z,6.80
2023-04-05T14:08:56.909Z,7.00
2023-04-05T14:11:26.529Z,7.40
2023-04-05T14:13:54.942Z,8.30
2023-04-05T14:16:22.994Z,7.60
2023-04-05T14:18:57.468Z,7.40
2023-04-05T14:21:26.283Z,8.10
2023-04-05T14:23:57.174Z,7.60
2023-04-05T14:26:26.241Z,8.70
2023-04-05T14:28:54.254Z,8.20
2023-04-05T14:31:23.428Z,8.50
2023-04-05T14:33:52.462Z,7.20
2023-04-05T14:36:20.974Z,8.80
2023-04-05T14:38:56.597Z,7.00
2023-04-05T14:41:25.066Z,7.50
2023-04-05T14:43:53.770Z,9.30
2023-04-05T14:46:22.187Z,8.30
2023-04-05T14:48:50.355Z,8.70
2023-04-05T14:51:18.301Z,8.70
2023-04-05T14:53:46.523Z,9.50
2023-04-05T14:56:16.110Z,8.90
2023-04-05T14:58:44.076Z,8.30
2023-04-05T15:01:12.183Z,7.80
2023-04-05T15:03:42.079Z,8.60
2023-04-05T15:06:10.500Z,8.50
2023-04-05T15:08:38.517Z,9.00
2023-04-05T15:11:12.541Z,9.30
2023-04-05T15:13:41.128Z,10.50
2023-04-05T15:16:10.671Z,8.70
2023-04-05T15:18:40.303Z,9.20
2023-04-05T15:21:08.701Z,10.10
2023-04-05T15:23:40.768Z,10.00
2023-04-05T15:26:08.965Z,10.10
2023-04-05T15:28:37.200Z,11.10
2023-04-05T15:31:05.557Z,9.00
2023-04-05T15:33:33.866Z,9.80
2023-04-05T15:36:02.007Z,10.40
2023-04-05T15:38:31.144Z,11.00
2023-04-05T15:40:59.027Z,10.80
2023-04-05T15:43:27.147Z,9.80
2023-04-05T15:45:55.737Z,9.60
2023-04-05T15:48:23.746Z,9.90
2023-04-05T15:50:52.669Z,10.50
2023-04-05T15:53:20.661Z,10.00
2023-04-05T15:55:48.743Z,10.40
2023-04-05T15:58:18.145Z,11.00
2023-04-05T16:00:47.867Z,10.70
2023-04-05T16:03:16.536Z,11.70
2023-04-05T16:05:44.817Z,11.40
2023-04-05T16:08:13.233Z,11.20
2023-04-05T16:10:42.700Z,11.10
2023-04-05T16:13:11.743Z,11.20
2023-04-05T16:15:40.977Z,11.00
2023-04-05T16:18:10.668Z,13.50
2023-04-05T16:20:39.510Z,12.40
2023-04-05T16:23:08.534Z,13.00
2023-04-05T16:25:36.441Z,12.90
2023-04-05T16:28:06.609Z,13.30
2023-04-05T16:30:35.442Z,12.80
2023-04-05T16:33:03.733Z,12.30
2023-04-05T16:35:33.995Z,12.00
2023-04-05T16:38:02.766Z,13.80
2023-04-05T16:40:32.783Z,13.20
2023-04-05T16:43:01.024Z,13.30
2023-04-05T16:45:30.665Z,12.20
2023-04-05T16:48:50.373Z,14.30
2023-04-05T16:51:18.442Z,13.90
2023-04-05T16:53:47.999Z,11.80
2023-04-05T16:56:15.986Z,13.50
2023-04-05T16:58:45.471Z,13.10
2023-04-05T17:01:13.489Z,11.30
2023-04-05T17:03:42.333Z,14.40
2023-04-05T17:06:11.254Z,14.00
2023-04-05T17:08:40.388Z,13.20
2023-04-05T17:11:08.379Z,15.10
2023-04-05T17:13:39.183Z,13.80
2023-04-05T17:16:07.363Z,11.50
2023-04-05T17:18:35.906Z,12.40
2023-04-05T17:21:09.842Z,14.50
2023-04-05T17:23:39.598Z,15.20
2023-04-05T17:26:07.719Z,14.70
2023-04-05T17:28:37.039Z,14.00
2023-04-05T17:31:05.034Z,13.50
2023-04-05T17:33:34.866Z,13.20
2023-04-05T17:36:04.252Z,15.10
2023-04-05T17:38:35.039Z,15.00
2023-04-05T17:41:03.352Z,14.50
2023-04-05T17:43:33.186Z,14.10
2023-04-05T17:46:02.540Z,14.50
2023-04-05T17:48:33.004Z,12.60
2023-04-05T17:51:09.092Z,14.10
2023-04-05T17:53:38.605Z,16.30
2023-04-05T17:56:06.548Z,12.30
2023-04-05T17:58:35.921Z,14.40
2023-04-05T18:01:05.083Z,14.90
2023-04-05T18:03:33.463Z,13.50
2023-04-05T18:06:02.094Z,15.20
2023-04-05T18:08:37.128Z,16.20
2023-04-05T18:11:05.590Z,14.20
2023-04-05T18:13:33.612Z,15.30
2023-04-05T18:16:04.474Z,15.30
2023-04-05T18:18:33.927Z,14.70
2023-04-05T18:21:02.042Z,15.90
2023-04-05T18:23:31.058Z,14.90
2023-04-05T18:26:03.066Z,15.40
2023-04-05T18:28:31.355Z,18.40
2023-04-05T18:30:59.699Z,15.40
2023-04-05T18:33:28.765Z,16.70
2023-04-05T18:35:56.821Z,16.30
2023-04-05T18:38:25.458Z,14.90
2023-04-05T18:41:00.885Z,14.80
2023-04-05T18:43:29.107Z,15.30
2023-04-05T18:45:57.178Z,15.50
2023-04-05T18:48:25.551Z,15.90
2023-04-05T18:50:54.439Z,16.10
2023-04-05T18:53:22.932Z,15.80
2023-04-05T18:55:53.620Z,15.50
2023-04-05T18:58:21.901Z,17.80
2023-04-05T19:00:50.394Z,14.30
2023-04-05T19:03:19.659Z,16.50
2023-04-05T19:05:50.564Z,16.10
2023-04-05T19:08:20.265Z,17.40
2023-04-05T19:10:49.273Z,18.20
2023-04-05T19:13:17.883Z,19.10
2023-04-05T19:15:48.262Z,17.50
2023-04-05T19:18:17.337Z,18.50
2023-04-05T19:20:58.742Z,17.10
2023-04-05T19:23:28.438Z,18.00
2023-04-05T19:25:57.150Z,18.90
2023-04-05T19:28:26.158Z,17.70
2023-04-05T19:30:54.775Z,18.70
2023-04-05T19:33:27.007Z,17.10
2023-04-05T19:35:57.896Z,17.80
2023-04-05T19:38:26.163Z,19.00
2023-04-05T19:40:57.971Z,17.00
2023-04-05T19:43:31.733Z,18.00
2023-04-05T19:46:00.641Z,17.10
2023-04-05T19:48:39.824Z,18.10
2023-04-05T19:51:09.228Z,17.30
2023-04-05T19:53:46.429Z,18.50
2023-04-05T19:56:16.888Z,15.90
2023-04-05T19:58:45.541Z,16.50
2023-04-05T20:01:29.406Z,16.00
2023-04-05T20:03:57.680Z,17.20
2023-04-05T20:06:27.301Z,17.10
2023-04-05T20:09:01.474Z,16.90
2023-04-05T20:11:31.049Z,17.00
2023-04-05T20:14:03.990Z,15.60
2023-04-05T20:16:34.537Z,16.70
2023-04-05T20:19:04.828Z,16.00
2023-04-05T20:21:33.126Z,16.50
2023-04-05T20:24:02.034Z,16.00
2023-04-05T20:26:31.487Z,15.20
2023-04-05T20:29:01.387Z,15.20
2023-04-05T20:31:33.606Z,16.60
2023-04-05T20:34:12.556Z,15.10
2023-04-05T20:36:51.417Z,15.80
2023-04-05T20:39:23.659Z,15.80
2023-04-05T20:41:51.606Z,14.40
2023-04-05T20:44:24.938Z,16.00
2023-04-05T20:46:54.683Z,16.20
2023-04-05T20:49:24.234Z,15.00
2023-04-05T20:51:54.839Z,16.20
2023-04-05T20:54:22.966Z,15.90
2023-04-05T20:56:58.434Z,15.90
2023-04-05T20:59:27.356Z,16.80
2023-04-05T21:01:55.712Z,14.90
2023-04-05T21:04:23.756Z,16.30
2023-04-05T21:06:52.455Z,16.80
2023-04-05T21:09:20.457Z,16.60
2023-04-05T21:11:49.332Z,17.30
2023-04-05T21:14:17.373Z,16.40
2023-04-05T21:16:45.268Z,16.50
2023-04-05T21:19:13.433Z,12.70
2023-04-05T21:21:41.385Z,14.10
2023-04-05T21:24:09.239Z,16.40
2023-04-05T21:26:37.157Z,15.20
2023-04-05T21:29:06.002Z,16.30
2023-04-05T21:31:34.381Z,15.60
2023-04-05T21:34:02.343Z,14.90
2023-04-05T21:36:33.531Z,16.50
2023-04-05T21:39:01.730Z,16.10
2023-04-05T21:41:30.038Z,16.10
2023-04-05T21:43:58.650Z,16.30
2023-04-05T21:46:27.154Z,16.30
2023-04-05T21:48:55.205Z,16.00
2023-04-05T21:51:23.510Z,15.90
2023-04-05T21:53:51.530Z,17.30
2023-04-05T21:56:21.374Z,12.60
2023-04-05T21:58:49.355Z,15.90
2023-04-05T22:01:17.324Z,16.00
2023-04-05T22:03:46.043Z,14.30
2023-04-05T22:06:14.268Z,15.10
2023-04-05T22:08:42.163Z,14.50
2023-04-05T22:11:11.304Z,15.30
2023-04-05T22:13:41.973Z,14.50
2023-04-05T22:16:10.211Z,14.40
2023-04-05T22:18:38.699Z,14.50
2023-04-05T22:21:06.607Z,14.10
2023-04-05T22:23:34.639Z,14.30
2023-04-05T22:26:02.550Z,14.10
2023-04-05T22:28:30.905Z,15.10
2023-04-05T22:30:58.860Z,14.20
2023-04-05T22:33:27.754Z,13.90
2023-04-05T22:35:55.656Z,14.30
2023-04-05T22:38:23.622Z,14.60
2023-04-05T22:40:51.670Z,13.70
2023-04-05T22:43:19.603Z,12.60
2023-04-05T22:45:53.531Z,14.40
2023-04-05T22:48:21.984Z,14.10
2023-04-05T22:50:51.545Z,13.60
2023-04-05T22:53:19.580Z,14.10
2023-04-05T22:55:47.960Z,13.80
2023-04-05T22:58:17.298Z,13.40
2023-04-05T23:00:45.316Z,13.00
2023-04-05T23:03:19.386Z,12.10
2023-04-05T23:05:48.464Z,13.90
2023-04-05T23:08:16.570Z,13.10
2023-04-05T23:10:44.840Z,14.60
2023-04-05T23:13:12.968Z,12.50
2023-04-05T23:15:41.323Z,13.10
2023-04-05T23:18:10.973Z,12.90
2023-04-05T23:20:40.438Z,13.30
2023-04-05T23:23:08.404Z,11.20
2023-04-05T23:25:37.071Z,13.10
2023-04-05T23:28:05.562Z,12.50
2023-04-05T23:30:35.955Z,13.20
2023-04-05T23:33:04.981Z,13.70
2023-04-05T23:35:32.958Z,13.90
2023-04-05T23:38:01.338Z,13.60
2023-04-05T23:40:29.595Z,12.90
2023-04-05T23:42:57.913Z,13.60
2023-04-05T23:45:27.168Z,14.30
2023-04-05T23:47:59.856Z,13.20
2023-04-05T23:50:28.025Z,12.70
2023-04-05T23:52:58.033Z,13.60
2023-04-05T23:55:26.453Z,14.90
2023-04-05T23:57:57.886Z,14.00
